sensor_id;sensor_type;location;lat;lon;timestamp;pressure;altitude;pressure_sealevel;temperature
69415;BMP280;56608;43.530;-5.652;2022-08-19T00:00:26;102080.41;;;17.92
69415;BMP280;56608;43.530;-5.652;2022-08-19T00:01:29;102079.94;;;17.85
69415;BMP280;56608;43.530;-5.652;2022-08-19T00:02:31;102075.72;;;17.75
69415;BMP280;56608;43.530;-5.652;2022-08-19T00:03:33;102076.03;;;17.77
69415;BMP280;56608;43.530;-5.652;2022-08-19T00:04:35;102073.91;;;17.72
69415;BMP280;56608;43.530;-5.652;2022-08-19T00:05:37;102078.00;;;17.76
69415;BMP280;56608;43.530;-5.652;2022-08-19T00:06:41;102072.84;;;17.78
69415;BMP280;56608;43.530;-5.652;2022-08-19T00:07:43;102071.78;;;17.76
69415;BMP280;56608;43.530;-5.652;2022-08-19T00:08:45;102073.91;;;17.72
69415;BMP280;56608;43.530;-5.652;2022-08-19T00:09:46;102067.25;;;17.73
69415;BMP280;56608;43.530;-5.652;2022-08-19T00:10:48;102072.72;;;17.82
69415;BMP280;56608;43.530;-5.652;2022-08-19T00:11:50;102066.09;;;17.92
69415;BMP280;56608;43.530;-5.652;2022-08-19T00:12:51;102060.66;;;18.01
69415;BMP280;56608;43.530;-5.652;2022-08-19T00:13:52;102063.06;;;17.99
69415;BMP280;56608;43.530;-5.652;2022-08-19T00:14:54;102065.16;;;18.04
69415;BMP280;56608;43.530;-5.652;2022-08-19T00:15:55;102068.47;;;18.08
69415;BMP280;56608;43.530;-5.652;2022-08-19T00:16:57;102067.72;;;18.07
69415;BMP280;56608;43.530;-5.652;2022-08-19T00:18:04;102062.44;;;18.04
69415;BMP280;56608;43.530;-5.652;2022-08-19T00:19:06;102070.59;;;18.04
69415;BMP280;56608;43.530;-5.652;2022-08-19T00:20:10;102063.66;;;18.03
69415;BMP280;56608;43.530;-5.652;2022-08-19T00:21:12;102068.19;;;18.06
69415;BMP280;56608;43.530;-5.652;2022-08-19T00:22:13;102061.53;;;18.07
69415;BMP280;56608;43.530;-5.652;2022-08-19T00:23:15;102067.28;;;18.00
69415;BMP280;56608;43.530;-5.652;2022-08-19T00:24:17;102056.69;;;18.02
69415;BMP280;56608;43.530;-5.652;2022-08-19T00:25:18;102062.12;;;18.02
69415;BMP280;56608;43.530;-5.652;2022-08-19T00:26:20;102064.72;;;18.05
69415;BMP280;56608;43.530;-5.652;2022-08-19T00:27:21;102066.97;;;18.07
69415;BMP280;56608;43.530;-5.652;2022-08-19T00:28:23;102067.44;;;18.05
69415;BMP280;56608;43.530;-5.652;2022-08-19T00:29:24;102063.34;;;18.10
69415;BMP280;56608;43.530;-5.652;2022-08-19T00:30:25;102070.00;;;18.09
69415;BMP280;56608;43.530;-5.652;2022-08-19T00:31:29;102058.19;;;18.12
69415;BMP280;56608;43.530;-5.652;2022-08-19T00:32:32;102061.53;;;18.07
69415;BMP280;56608;43.530;-5.652;2022-08-19T00:33:35;102067.56;;;18.11
69415;BMP280;56608;43.530;-5.652;2022-08-19T00:34:36;102062.91;;;18.21
69415;BMP280;56608;43.530;-5.652;2022-08-19T00:35:38;102070.00;;;18.18
69415;BMP280;56608;43.530;-5.652;2022-08-19T00:36:40;102066.94;;;18.16
69415;BMP280;56608;43.530;-5.652;2022-08-19T00:37:41;102070.44;;;18.17
69415;BMP280;56608;43.530;-5.652;2022-08-19T00:38:45;102064.25;;;18.07
69415;BMP280;56608;43.530;-5.652;2022-08-19T00:39:45;102064.84;;;18.11
69415;BMP280;56608;43.530;-5.652;2022-08-19T00:40:47;102062.12;;;18.02
69415;BMP280;56608;43.530;-5.652;2022-08-19T00:41:50;102071.53;;;17.92
69415;BMP280;56608;43.530;-5.652;2022-08-19T00:42:51;102062.88;;;17.84
69415;BMP280;56608;43.530;-5.652;2022-08-19T00:44:05;102069.38;;;17.87
69415;BMP280;56608;43.530;-5.652;2022-08-19T00:45:17;102059.44;;;17.93
69415;BMP280;56608;43.530;-5.652;2022-08-19T00:46:18;102072.56;;;17.94
69415;BMP280;56608;43.530;-5.652;2022-08-19T00:47:21;102057.63;;;17.99
69415;BMP280;56608;43.530;-5.652;2022-08-19T00:48:22;102062.28;;;17.98
69415;BMP280;56608;43.530;-5.652;2022-08-19T00:49:57;102064.56;;;18.00
69415;BMP280;56608;43.530;-5.652;2022-08-19T00:50:59;102064.56;;;18.00
69415;BMP280;56608;43.530;-5.652;2022-08-19T00:52:23;102060.03;;;18.06
69415;BMP280;56608;43.530;-5.652;2022-08-19T00:53:28;102061.06;;;18.08
69415;BMP280;56608;43.530;-5.652;2022-08-19T00:54:30;102058.81;;;18.07
69415;BMP280;56608;43.530;-5.652;2022-08-19T00:55:31;102053.38;;;18.07
69415;BMP280;56608;43.530;-5.652;2022-08-19T00:56:33;102056.41;;;18.09
69415;BMP280;56608;43.530;-5.652;2022-08-19T00:57:38;102055.47;;;18.12
69415;BMP280;56608;43.530;-5.652;2022-08-19T00:58:41;102053.06;;;18.14
69415;BMP280;56608;43.530;-5.652;2022-08-19T00:59:44;102050.53;;;18.20
69415;BMP280;56608;43.530;-5.652;2022-08-19T01:00:48;102056.06;;;18.16
69415;BMP280;56608;43.530;-5.652;2022-08-19T01:01:49;102051.56;;;18.13
69415;BMP280;56608;43.530;-5.652;2022-08-19T01:02:52;102052.00;;;18.12
69415;BMP280;56608;43.530;-5.652;2022-08-19T01:03:54;102052.50;;;18.01
69415;BMP280;56608;43.530;-5.652;2022-08-19T01:04:55;102052.34;;;17.95
69415;BMP280;56608;43.530;-5.652;2022-08-19T01:05:57;102046.72;;;17.99
69415;BMP280;56608;43.530;-5.652;2022-08-19T01:06:59;102043.41;;;17.95
69415;BMP280;56608;43.530;-5.652;2022-08-19T01:08:02;102041.44;;;17.86
69415;BMP280;56608;43.530;-5.652;2022-08-19T01:09:05;102044.00;;;17.81
69415;BMP280;56608;43.530;-5.652;2022-08-19T01:10:11;102041.28;;;17.81
69415;BMP280;56608;43.530;-5.652;2022-08-19T01:11:13;102034.03;;;17.87
69415;BMP280;56608;43.530;-5.652;2022-08-19T01:12:14;102037.34;;;17.91
69415;BMP280;56608;43.530;-5.652;2022-08-19T01:13:22;102038.25;;;17.97
69415;BMP280;56608;43.530;-5.652;2022-08-19T01:14:24;102039.50;;;18.05
69415;BMP280;56608;43.530;-5.652;2022-08-19T01:15:31;102036.75;;;18.05
69415;BMP280;56608;43.530;-5.652;2022-08-19T01:16:34;102032.84;;;18.06
69415;BMP280;56608;43.530;-5.652;2022-08-19T01:17:38;102038.41;;;18.02
69415;BMP280;56608;43.530;-5.652;2022-08-19T01:18:42;102032.81;;;17.97
69415;BMP280;56608;43.530;-5.652;2022-08-19T01:19:45;102034.63;;;17.91
69415;BMP280;56608;43.530;-5.652;2022-08-19T01:20:48;102034.31;;;17.89
69415;BMP280;56608;43.530;-5.652;2022-08-19T01:23:05;102036.13;;;17.74
69415;BMP280;56608;43.530;-5.652;2022-08-19T01:24:06;102031.03;;;17.67
69415;BMP280;56608;43.530;-5.652;2022-08-19T01:25:08;102035.25;;;17.68
69415;BMP280;56608;43.530;-5.652;2022-08-19T01:26:17;102026.00;;;17.65
69415;BMP280;56608;43.530;-5.652;2022-08-19T01:27:18;102021.47;;;17.62
69415;BMP280;56608;43.530;-5.652;2022-08-19T01:28:23;102023.72;;;17.63
69415;BMP280;56608;43.530;-5.652;2022-08-19T01:29:26;102023.72;;;17.63
69415;BMP280;56608;43.530;-5.652;2022-08-19T01:30:30;102024.97;;;17.62
69415;BMP280;56608;43.530;-5.652;2022-08-19T01:31:32;102015.56;;;17.63
69415;BMP280;56608;43.530;-5.652;2022-08-19T01:32:33;102021.34;;;17.75
69415;BMP280;56608;43.530;-5.652;2022-08-19T01:33:36;102019.38;;;17.84
69415;BMP280;56608;43.530;-5.652;2022-08-19T01:34:37;102013.19;;;17.84
69415;BMP280;56608;43.530;-5.652;2022-08-19T01:35:38;102016.97;;;17.86
69415;BMP280;56608;43.530;-5.652;2022-08-19T01:36:44;102013.19;;;17.84
69415;BMP280;56608;43.530;-5.652;2022-08-19T01:38:00;102011.81;;;17.79
69415;BMP280;56608;43.530;-5.652;2022-08-19T01:39:06;102013.50;;;17.77
69415;BMP280;56608;43.530;-5.652;2022-08-19T01:40:09;102012.00;;;17.76
69415;BMP280;56608;43.530;-5.652;2022-08-19T01:41:11;102012.41;;;17.65
69415;BMP280;56608;43.530;-5.652;2022-08-19T01:42:13;102009.84;;;17.61
69415;BMP280;56608;43.530;-5.652;2022-08-19T01:43:15;102014.09;;;17.62
69415;BMP280;56608;43.530;-5.652;2022-08-19T01:44:16;102011.81;;;17.52
69415;BMP280;56608;43.530;-5.652;2022-08-19T01:45:24;102019.50;;;17.44
69415;BMP280;56608;43.530;-5.652;2022-08-19T01:46:26;102012.09;;;17.45
69415;BMP280;56608;43.530;-5.652;2022-08-19T01:47:27;102010.44;;;17.56
69415;BMP280;56608;43.530;-5.652;2022-08-19T01:48:34;102000.78;;;17.64
69415;BMP280;56608;43.530;-5.652;2022-08-19T01:49:36;102014.84;;;17.63
69415;BMP280;56608;43.530;-5.652;2022-08-19T01:50:38;102015.41;;;17.49
69415;BMP280;56608;43.530;-5.652;2022-08-19T01:51:39;102000.28;;;17.39
69415;BMP280;56608;43.530;-5.652;2022-08-19T01:52:41;102001.78;;;17.21
69415;BMP280;56608;43.530;-5.652;2022-08-19T01:53:47;102011.12;;;17.20
69415;BMP280;56608;43.530;-5.652;2022-08-19T01:54:49;102004.06;;;17.23
69415;BMP280;56608;43.530;-5.652;2022-08-19T01:55:50;102008.56;;;17.17
69415;BMP280;56608;43.530;-5.652;2022-08-19T01:56:51;102008.06;;;17.09
69415;BMP280;56608;43.530;-5.652;2022-08-19T01:57:58;102005.66;;;17.11
69415;BMP280;56608;43.530;-5.652;2022-08-19T01:59:06;102003.37;;;17.10
69415;BMP280;56608;43.530;-5.652;2022-08-19T02:00:12;102001.25;;;17.05
69415;BMP280;56608;43.530;-5.652;2022-08-19T02:01:15;102003.37;;;17.01
69415;BMP280;56608;43.530;-5.652;2022-08-19T02:02:16;102008.19;;;16.97
69415;BMP280;56608;43.530;-5.652;2022-08-19T02:03:18;101993.41;;;16.98
69415;BMP280;56608;43.530;-5.652;2022-08-19T02:04:19;101996.28;;;17.03
69415;BMP280;56608;43.530;-5.652;2022-08-19T02:05:22;102002.59;;;17.00
69415;BMP280;56608;43.530;-5.652;2022-08-19T02:06:24;101997.94;;;17.01
69415;BMP280;56608;43.530;-5.652;2022-08-19T02:07:25;101996.41;;;17.00
69415;BMP280;56608;43.530;-5.652;2022-08-19T02:08:30;101994.91;;;16.99
69415;BMP280;56608;43.530;-5.652;2022-08-19T02:09:32;102000.22;;;17.02
69415;BMP280;56608;43.530;-5.652;2022-08-19T02:10:32;101984.97;;;17.05
69415;BMP280;56608;43.530;-5.652;2022-08-19T02:11:35;101994.31;;;17.04
69415;BMP280;56608;43.530;-5.652;2022-08-19T02:12:37;101990.72;;;17.07
69415;BMP280;56608;43.530;-5.652;2022-08-19T02:13:38;101986.84;;;17.17
69415;BMP280;56608;43.530;-5.652;2022-08-19T02:14:40;101985.94;;;17.29
69415;BMP280;56608;43.530;-5.652;2022-08-19T02:15:41;101987.31;;;17.34
69415;BMP280;56608;43.530;-5.652;2022-08-19T02:16:43;101999.87;;;17.40
69415;BMP280;56608;43.530;-5.652;2022-08-19T02:17:45;101998.22;;;17.43
69415;BMP280;56608;43.530;-5.652;2022-08-19T02:18:47;101997.56;;;17.39
69415;BMP280;56608;43.530;-5.652;2022-08-19T02:19:52;101993.53;;;17.43
69415;BMP280;56608;43.530;-5.652;2022-08-19T02:20:52;101987.47;;;17.48
69415;BMP280;56608;43.530;-5.652;2022-08-19T02:21:54;101987.19;;;17.46
69415;BMP280;56608;43.530;-5.652;2022-08-19T02:22:54;101987.19;;;17.46
69415;BMP280;56608;43.530;-5.652;2022-08-19T02:23:57;101983.72;;;17.46
69415;BMP280;56608;43.530;-5.652;2022-08-19T02:24:58;101983.56;;;17.40
69415;BMP280;56608;43.530;-5.652;2022-08-19T02:26:00;101987.44;;;17.30
69415;BMP280;56608;43.530;-5.652;2022-08-19T02:27:02;101988.97;;;17.22
69415;BMP280;56608;43.530;-5.652;2022-08-19T02:28:04;101993.97;;;17.33
69415;BMP280;56608;43.530;-5.652;2022-08-19T02:29:05;101981.25;;;17.39
69415;BMP280;56608;43.530;-5.652;2022-08-19T02:30:14;101986.44;;;17.46
69415;BMP280;56608;43.530;-5.652;2022-08-19T02:31:19;101985.34;;;17.25
69415;BMP280;56608;43.530;-5.652;2022-08-19T02:32:21;101988.03;;;17.16
69415;BMP280;56608;43.530;-5.652;2022-08-19T02:33:22;101990.41;;;17.14
69415;BMP280;56608;43.530;-5.652;2022-08-19T02:34:24;101994.34;;;17.13
69415;BMP280;56608;43.530;-5.652;2022-08-19T02:35:25;101992.09;;;17.11
69415;BMP280;56608;43.530;-5.652;2022-08-19T02:36:27;101990.88;;;17.03
69415;BMP280;56608;43.530;-5.652;2022-08-19T02:37:29;101993.13;;;17.05
69415;BMP280;56608;43.530;-5.652;2022-08-19T02:39:03;101983.44;;;16.95
69415;BMP280;56608;43.530;-5.652;2022-08-19T02:40:05;101989.78;;;17.01
69415;BMP280;56608;43.530;-5.652;2022-08-19T02:41:17;101987.50;;;16.90
69415;BMP280;56608;43.530;-5.652;2022-08-19T02:42:19;101980.44;;;16.93
69415;BMP280;56608;43.530;-5.652;2022-08-19T02:43:21;101994.62;;;16.97
69415;BMP280;56608;43.530;-5.652;2022-08-19T02:44:23;101985.28;;;17.07
69415;BMP280;56608;43.530;-5.652;2022-08-19T02:45:23;101986.37;;;17.18
69415;BMP280;56608;43.530;-5.652;2022-08-19T02:46:28;101980.81;;;17.22
69415;BMP280;56608;43.530;-5.652;2022-08-19T02:47:29;101996.03;;;17.29
69415;BMP280;56608;43.530;-5.652;2022-08-19T02:48:30;101990.47;;;17.32
69415;BMP280;56608;43.530;-5.652;2022-08-19T02:49:33;101984.12;;;17.26
69415;BMP280;56608;43.530;-5.652;2022-08-19T02:50:39;101987.00;;;17.22
69415;BMP280;56608;43.530;-5.652;2022-08-19T02:51:43;101992.87;;;17.21
69415;BMP280;56608;43.530;-5.652;2022-08-19T02:52:44;101990.41;;;17.05
69415;BMP280;56608;43.530;-5.652;2022-08-19T02:53:46;101987.34;;;16.94
69415;BMP280;56608;43.530;-5.652;2022-08-19T02:54:49;101994.00;;;16.93
69415;BMP280;56608;43.530;-5.652;2022-08-19T02:55:51;101993.69;;;16.91
69415;BMP280;56608;43.530;-5.652;2022-08-19T02:56:53;101992.47;;;16.92
69415;BMP280;56608;43.530;-5.652;2022-08-19T02:57:54;101990.22;;;16.99
69415;BMP280;56608;43.530;-5.652;2022-08-19T02:58:56;101990.34;;;16.87
69415;BMP280;56608;43.530;-5.652;2022-08-19T02:59:58;101988.69;;;16.89
69415;BMP280;56608;43.530;-5.652;2022-08-19T03:00:59;101987.97;;;16.98
69415;BMP280;56608;43.530;-5.652;2022-08-19T03:02:01;101989.94;;;16.97
69415;BMP280;56608;43.530;-5.652;2022-08-19T03:03:02;101994.03;;;17.02
69415;BMP280;56608;43.530;-5.652;2022-08-19T03:04:05;101988.59;;;17.02
69415;BMP280;56608;43.530;-5.652;2022-08-19T03:05:08;101990.22;;;16.99
69415;BMP280;56608;43.530;-5.652;2022-08-19T03:06:13;101992.78;;;16.94
69415;BMP280;56608;43.530;-5.652;2022-08-19T03:07:16;101988.88;;;16.95
69415;BMP280;56608;43.530;-5.652;2022-08-19T03:08:18;101987.38;;;17.03
69415;BMP280;56608;43.530;-5.652;2022-08-19T03:09:20;101993.72;;;17.09
69415;BMP280;56608;43.530;-5.652;2022-08-19T03:10:21;101991.31;;;17.02
69415;BMP280;56608;43.530;-5.652;2022-08-19T03:11:28;101992.00;;;16.93
69415;BMP280;56608;43.530;-5.652;2022-08-19T03:12:30;101992.50;;;17.01
69415;BMP280;56608;43.530;-5.652;2022-08-19T03:13:32;101989.78;;;17.01
69415;BMP280;56608;43.530;-5.652;2022-08-19T03:14:34;101987.38;;;17.03
69415;BMP280;56608;43.530;-5.652;2022-08-19T03:15:34;101987.25;;;17.06
69415;BMP280;56608;43.530;-5.652;2022-08-19T03:16:47;101986.94;;;17.04
69415;BMP280;56608;43.530;-5.652;2022-08-19T03:17:49;101991.59;;;17.04
69415;BMP280;56608;43.530;-5.652;2022-08-19T03:18:51;101988.00;;;17.07
69415;BMP280;56608;43.530;-5.652;2022-08-19T03:19:52;101994.66;;;17.15
69415;BMP280;56608;43.530;-5.652;2022-08-19T03:20:54;101987.53;;;17.08
69415;BMP280;56608;43.530;-5.652;2022-08-19T03:21:57;101991.47;;;17.07
69415;BMP280;56608;43.530;-5.652;2022-08-19T03:22:59;101992.09;;;17.11
69415;BMP280;56608;43.530;-5.652;2022-08-19T03:24:07;101990.41;;;17.05
69415;BMP280;56608;43.530;-5.652;2022-08-19T03:25:09;101989.72;;;16.82
69415;BMP280;56608;43.530;-5.652;2022-08-19T03:26:09;101987.00;;;16.82
69415;BMP280;56608;43.530;-5.652;2022-08-19T03:27:11;101986.37;;;16.78
69415;BMP280;56608;43.530;-5.652;2022-08-19T03:28:14;101985.91;;;16.71
69415;BMP280;56608;43.530;-5.652;2022-08-19T03:29:16;101982.59;;;16.76
69415;BMP280;56608;43.530;-5.652;2022-08-19T03:30:18;101979.56;;;16.74
69415;BMP280;56608;43.530;-5.652;2022-08-19T03:31:19;101985.97;;;16.89
69415;BMP280;56608;43.530;-5.652;2022-08-19T03:32:23;101982.56;;;16.98
69415;BMP280;56608;43.530;-5.652;2022-08-19T03:33:26;101983.44;;;17.04
69415;BMP280;56608;43.530;-5.652;2022-08-19T03:34:30;101981.38;;;17.08
69415;BMP280;56608;43.530;-5.652;2022-08-19T03:35:31;101986.16;;;17.04
69415;BMP280;56608;43.530;-5.652;2022-08-19T03:36:33;101989.19;;;17.06
69415;BMP280;56608;43.530;-5.652;2022-08-19T03:37:34;101988.59;;;17.02
69415;BMP280;56608;43.530;-5.652;2022-08-19T03:38:37;101981.75;;;16.88
69415;BMP280;56608;43.530;-5.652;2022-08-19T03:39:40;101983.69;;;16.88
69415;BMP280;56608;43.530;-5.652;2022-08-19T03:40:43;101977.62;;;16.83
69415;BMP280;56608;43.530;-5.652;2022-08-19T03:41:44;101972.44;;;16.98
69415;BMP280;56608;43.530;-5.652;2022-08-19T03:42:45;101976.22;;;17.01
69415;BMP280;56608;43.530;-5.652;2022-08-19T03:43:47;101972.56;;;16.95
69415;BMP280;56608;43.530;-5.652;2022-08-19T03:44:48;101970.75;;;16.92
69415;BMP280;56608;43.530;-5.652;2022-08-19T03:46:00;101970.25;;;16.84
69415;BMP280;56608;43.530;-5.652;2022-08-19T03:47:01;101970.25;;;16.84
69415;BMP280;56608;43.530;-5.652;2022-08-19T03:48:02;101973.13;;;16.80
69415;BMP280;56608;43.530;-5.652;2022-08-19T03:49:04;101966.75;;;16.74
69415;BMP280;56608;43.530;-5.652;2022-08-19T03:50:08;101967.94;;;16.73
69415;BMP280;56608;43.530;-5.652;2022-08-19T03:51:19;101967.19;;;16.73
69415;BMP280;56608;43.530;-5.652;2022-08-19T03:52:21;101973.72;;;16.54
69415;BMP280;56608;43.530;-5.652;2022-08-19T03:53:22;101976.31;;;16.57
69415;BMP280;56608;43.530;-5.652;2022-08-19T03:54:24;101976.31;;;16.57
69415;BMP280;56608;43.530;-5.652;2022-08-19T03:55:26;101975.00;;;16.62
69415;BMP280;56608;43.530;-5.652;2022-08-19T03:56:28;101980.84;;;16.60
69415;BMP280;56608;43.530;-5.652;2022-08-19T03:57:30;101980.84;;;16.60
69415;BMP280;56608;43.530;-5.652;2022-08-19T03:58:32;101982.37;;;16.61
69415;BMP280;56608;43.530;-5.652;2022-08-19T03:59:35;101982.25;;;16.65
69415;BMP280;56608;43.530;-5.652;2022-08-19T04:00:37;101986.28;;;16.60
69415;BMP280;56608;43.530;-5.652;2022-08-19T04:01:39;101987.78;;;16.61
69415;BMP280;56608;43.530;-5.652;2022-08-19T04:02:40;101984.91;;;16.56
69415;BMP280;56608;43.530;-5.652;2022-08-19T04:03:41;101988.88;;;16.42
69415;BMP280;56608;43.530;-5.652;2022-08-19T04:04:43;101988.59;;;16.40
69415;BMP280;56608;43.530;-5.652;2022-08-19T04:05:46;101981.88;;;16.32
69415;BMP280;56608;43.530;-5.652;2022-08-19T04:06:48;101988.81;;;16.33
69415;BMP280;56608;43.530;-5.652;2022-08-19T04:07:49;101985.69;;;16.34
69415;BMP280;56608;43.530;-5.652;2022-08-19T04:08:52;101982.84;;;16.38
69415;BMP280;56608;43.530;-5.652;2022-08-19T04:09:55;101991.59;;;16.42
69415;BMP280;56608;43.530;-5.652;2022-08-19T04:10:56;101990.41;;;16.43
69415;BMP280;56608;43.530;-5.652;2022-08-19T04:11:57;101980.81;;;16.51
69415;BMP280;56608;43.530;-5.652;2022-08-19T04:12:58;101978.09;;;16.51
69415;BMP280;56608;43.530;-5.652;2022-08-19T04:14:00;101980.25;;;16.56
69415;BMP280;56608;43.530;-5.652;2022-08-19T04:15:02;101987.34;;;16.63
69415;BMP280;56608;43.530;-5.652;2022-08-19T04:16:04;101981.50;;;16.64
69415;BMP280;56608;43.530;-5.652;2022-08-19T04:17:06;101978.34;;;16.66
69415;BMP280;56608;43.530;-5.652;2022-08-19T04:18:09;101983.00;;;16.65
69415;BMP280;56608;43.530;-5.652;2022-08-19T04:19:12;101978.03;;;16.64
69415;BMP280;56608;43.530;-5.652;2022-08-19T04:20:13;101973.66;;;16.66
69415;BMP280;56608;43.530;-5.652;2022-08-19T04:21:18;101975.31;;;16.64
69415;BMP280;56608;43.530;-5.652;2022-08-19T04:22:20;101977.81;;;16.58
69415;BMP280;56608;43.530;-5.652;2022-08-19T04:23:22;101981.09;;;16.53
69415;BMP280;56608;43.530;-5.652;2022-08-19T04:24:24;101984.41;;;16.48
69415;BMP280;56608;43.530;-5.652;2022-08-19T04:25:26;101975.84;;;16.50
69415;BMP280;56608;43.530;-5.652;2022-08-19T04:26:29;101980.41;;;16.62
69415;BMP280;56608;43.530;-5.652;2022-08-19T04:27:33;101978.63;;;16.68
69415;BMP280;56608;43.530;-5.652;2022-08-19T04:28:35;101976.84;;;16.74
69415;BMP280;56608;43.530;-5.652;2022-08-19T04:29:37;101982.16;;;16.77
69415;BMP280;56608;43.530;-5.652;2022-08-19T04:30:43;101980.06;;;16.81
69415;BMP280;56608;43.530;-5.652;2022-08-19T04:31:46;101974.62;;;16.81
69415;BMP280;56608;43.530;-5.652;2022-08-19T04:32:47;101976.44;;;16.84
69415;BMP280;56608;43.530;-5.652;2022-08-19T04:33:48;101981.44;;;16.86
69415;BMP280;56608;43.530;-5.652;2022-08-19T04:34:50;101974.78;;;16.87
69415;BMP280;56608;43.530;-5.652;2022-08-19T04:35:52;101974.69;;;16.91
69415;BMP280;56608;43.530;-5.652;2022-08-19T04:36:55;101982.37;;;16.92
69415;BMP280;56608;43.530;-5.652;2022-08-19T04:37:58;101978.28;;;16.88
69415;BMP280;56608;43.530;-5.652;2022-08-19T04:39:01;101977.78;;;16.80
69415;BMP280;56608;43.530;-5.652;2022-08-19T04:40:05;101976.72;;;16.77
69415;BMP280;56608;43.530;-5.652;2022-08-19T04:41:25;101975.81;;;16.80
69415;BMP280;56608;43.530;-5.652;2022-08-19T04:42:45;101984.88;;;16.77
69415;BMP280;56608;43.530;-5.652;2022-08-19T04:43:47;101975.22;;;16.76
69415;BMP280;56608;43.530;-5.652;2022-08-19T04:44:49;101976.69;;;16.68
69415;BMP280;56608;43.530;-5.652;2022-08-19T04:45:51;101974.91;;;16.74
69415;BMP280;56608;43.530;-5.652;2022-08-19T04:46:53;101970.66;;;16.73
69415;BMP280;56608;43.530;-5.652;2022-08-19T04:47:55;101967.16;;;16.64
69415;BMP280;56608;43.530;-5.652;2022-08-19T04:49:01;101969.13;;;16.63
69415;BMP280;56608;43.530;-5.652;2022-08-19T04:50:03;101968.87;;;16.49
69415;BMP280;56608;43.530;-5.652;2022-08-19T04:51:07;101973.38;;;16.42
69415;BMP280;56608;43.530;-5.652;2022-08-19T04:52:09;101967.94;;;16.42
69415;BMP280;56608;43.530;-5.652;2022-08-19T04:53:09;101970.38;;;16.40
69415;BMP280;56608;43.530;-5.652;2022-08-19T04:54:12;101968.13;;;16.48
69415;BMP280;56608;43.530;-5.652;2022-08-19T04:55:13;101963.00;;;16.41
69415;BMP280;56608;43.530;-5.652;2022-08-19T04:56:17;101964.19;;;16.40
69415;BMP280;56608;43.530;-5.652;2022-08-19T04:57:20;101963.28;;;16.43
69415;BMP280;56608;43.530;-5.652;2022-08-19T04:58:21;101963.28;;;16.43
69415;BMP280;56608;43.530;-5.652;2022-08-19T04:59:23;101967.19;;;16.42
69415;BMP280;56608;43.530;-5.652;2022-08-19T05:00:24;101963.47;;;16.27
69415;BMP280;56608;43.530;-5.652;2022-08-19T05:01:28;101969.53;;;16.31
69415;BMP280;56608;43.530;-5.652;2022-08-19T05:02:29;101977.22;;;16.32
69415;BMP280;56608;43.530;-5.652;2022-08-19T05:03:31;101974.62;;;16.29
69415;BMP280;56608;43.530;-5.652;2022-08-19T05:04:35;101971.69;;;16.36
69415;BMP280;56608;43.530;-5.652;2022-08-19T05:05:41;101974.38;;;16.36
69415;BMP280;56608;43.530;-5.652;2022-08-19T05:06:42;101972.44;;;16.36
69415;BMP280;56608;43.530;-5.652;2022-08-19T05:07:44;101980.38;;;16.31
69415;BMP280;56608;43.530;-5.652;2022-08-19T05:08:46;101975.59;;;16.35
69415;BMP280;56608;43.530;-5.652;2022-08-19T05:09:48;101976.66;;;16.37
69415;BMP280;56608;43.530;-5.652;2022-08-19T05:10:50;101974.38;;;16.36
69415;BMP280;56608;43.530;-5.652;2022-08-19T05:11:52;101979.06;;;16.35
69415;BMP280;56608;43.530;-5.652;2022-08-19T05:12:54;101979.37;;;16.37
69415;BMP280;56608;43.530;-5.652;2022-08-19T05:13:56;101968.09;;;16.39
69415;BMP280;56608;43.530;-5.652;2022-08-19T05:14:59;101975.47;;;16.38
69415;BMP280;56608;43.530;-5.652;2022-08-19T05:16:01;101972.31;;;16.40
69415;BMP280;56608;43.530;-5.652;2022-08-19T05:17:03;101974.72;;;16.38
69415;BMP280;56608;43.530;-5.652;2022-08-19T05:18:04;101966.06;;;16.30
69415;BMP280;56608;43.530;-5.652;2022-08-19T05:19:24;101966.56;;;16.38
69415;BMP280;56608;43.530;-5.652;2022-08-19T05:20:44;101963.09;;;16.37
69415;BMP280;56608;43.530;-5.652;2022-08-19T05:22:04;101969.31;;;16.47
69415;BMP280;56608;43.530;-5.652;2022-08-19T05:23:24;101958.78;;;16.49
69415;BMP280;56608;43.530;-5.652;2022-08-19T05:24:26;101965.56;;;16.44
69415;BMP280;56608;43.530;-5.652;2022-08-19T05:25:27;101965.22;;;16.42
69415;BMP280;56608;43.530;-5.652;2022-08-19T05:26:29;101976.56;;;16.41
69415;BMP280;56608;43.530;-5.652;2022-08-19T05:27:31;101977.09;;;16.36
69415;BMP280;56608;43.530;-5.652;2022-08-19T05:28:32;101975.59;;;16.35
69415;BMP280;56608;43.530;-5.652;2022-08-19T05:29:34;101976.03;;;16.33
69415;BMP280;56608;43.530;-5.652;2022-08-19T05:30:35;101974.81;;;16.34
69415;BMP280;56608;43.530;-5.652;2022-08-19T05:31:37;101980.25;;;16.34
69415;BMP280;56608;43.530;-5.652;2022-08-19T05:32:42;101972.63;;;16.42
69415;BMP280;56608;43.530;-5.652;2022-08-19T05:33:44;101972.75;;;16.38
69415;BMP280;56608;43.530;-5.652;2022-08-19T05:34:45;101977.75;;;16.40
69415;BMP280;56608;43.530;-5.652;2022-08-19T05:35:48;101975.97;;;16.46
69415;BMP280;56608;43.530;-5.652;2022-08-19T05:36:52;101983.16;;;16.40
69415;BMP280;56608;43.530;-5.652;2022-08-19T05:37:58;101982.16;;;16.47
69415;BMP280;56608;43.530;-5.652;2022-08-19T05:38:59;101984.69;;;16.41
69415;BMP280;56608;43.530;-5.652;2022-08-19T05:40:01;101985.81;;;16.31
69415;BMP280;56608;43.530;-5.652;2022-08-19T05:41:13;101991.31;;;16.40
69415;BMP280;56608;43.530;-5.652;2022-08-19T05:42:15;101987.25;;;16.44
69415;BMP280;56608;43.530;-5.652;2022-08-19T05:43:17;101987.13;;;16.48
69415;BMP280;56608;43.530;-5.652;2022-08-19T05:44:19;101990.41;;;16.43
69415;BMP280;56608;43.530;-5.652;2022-08-19T05:45:22;101997.69;;;16.46
69415;BMP280;56608;43.530;-5.652;2022-08-19T05:46:24;101997.03;;;16.42
69415;BMP280;56608;43.530;-5.652;2022-08-19T05:47:24;101997.22;;;16.48
69415;BMP280;56608;43.530;-5.652;2022-08-19T05:48:26;101993.63;;;16.51
69415;BMP280;56608;43.530;-5.652;2022-08-19T05:49:30;101997.09;;;16.51
69415;BMP280;56608;43.530;-5.652;2022-08-19T05:50:32;101997.72;;;16.55
69415;BMP280;56608;43.530;-5.652;2022-08-19T05:51:35;102000.09;;;16.53
69415;BMP280;56608;43.530;-5.652;2022-08-19T05:52:37;101993.63;;;16.51
69415;BMP280;56608;43.530;-5.652;2022-08-19T05:53:39;101993.81;;;16.56
69415;BMP280;56608;43.530;-5.652;2022-08-19T05:54:41;102000.06;;;16.66